createdAt,value
2017-09-10T00:00:39.617Z,95.10
2017-09-10T00:03:10.858Z,95.00
2017-09-10T00:05:41.898Z,95.00
2017-09-10T00:08:13.302Z,95.00
2017-09-10T00:10:44.525Z,95.10
2017-09-10T00:13:15.664Z,95.10
2017-09-10T00:15:46.833Z,95.20
2017-09-10T00:18:17.955Z,95.20
2017-09-10T00:20:49.567Z,95.10
2017-09-10T00:23:20.735Z,94.90
2017-09-10T00:25:52.016Z,94.80
2017-09-10T00:28:23.115Z,94.70
2017-09-10T00:30:54.220Z,94.50
2017-09-10T00:33:25.351Z,94.40
2017-09-10T00:35:56.467Z,94.30
2017-09-10T00:38:28.170Z,94.20
2017-09-10T00:40:59.487Z,94.10
2017-09-10T00:43:30.625Z,93.90
2017-09-10T00:46:01.726Z,93.80
2017-09-10T00:48:32.952Z,93.60
2017-09-10T00:51:05.153Z,93.40
2017-09-10T00:53:36.351Z,93.40
2017-09-10T00:56:08.458Z,93.50
2017-09-10T00:58:39.696Z,93.50
2017-09-10T01:01:10.921Z,93.50
2017-09-10T01:03:42.106Z,93.30
2017-09-10T01:06:13.269Z,93.20
2017-09-10T01:08:44.880Z,93.00
2017-09-10T01:11:16.144Z,92.90
2017-09-10T01:13:47.307Z,92.80
2017-09-10T01:16:18.508Z,92.50
2017-09-10T01:18:49.623Z,92.40
2017-09-10T01:21:22.069Z,92.00
2017-09-10T01:23:53.316Z,92.00
2017-09-10T01:26:24.867Z,92.00
2017-09-10T01:28:56.098Z,92.10
2017-09-10T01:31:27.310Z,92.00
2017-09-10T01:33:58.345Z,92.20
2017-09-10T01:36:29.510Z,92.30
2017-09-10T01:39:00.928Z,92.40
2017-09-10T01:41:32.010Z,92.10
2017-09-10T01:44:03.172Z,91.90
2017-09-10T01:46:34.430Z,91.70
2017-09-10T01:49:05.604Z,91.50
2017-09-10T01:51:38.614Z,91.00
2017-09-10T01:54:09.635Z,91.00
2017-09-10T01:56:41.956Z,91.00
2017-09-10T01:59:13.187Z,91.00
2017-09-10T02:01:44.378Z,90.80
2017-09-10T02:04:15.541Z,90.40
2017-09-10T02:06:47.549Z,89.80
2017-09-10T02:09:19.123Z,89.80
2017-09-10T02:11:50.157Z,90.00
2017-09-10T02:14:21.355Z,89.10
2017-09-10T02:16:52.623Z,89.10
2017-09-10T02:19:23.846Z,88.80
2017-09-10T02:21:55.490Z,88.20
2017-09-10T02:24:27.476Z,86.00
2017-09-10T02:26:58.854Z,86.00
2017-09-10T02:29:30.143Z,85.00
2017-09-10T02:32:01.982Z,84.40
2017-09-10T02:34:33.129Z,84.40
2017-09-10T02:37:04.306Z,83.10
2017-09-10T02:39:36.856Z,82.60
2017-09-10T02:42:07.952Z,83.00
2017-09-10T02:44:39.035Z,82.20
2017-09-10T02:47:10.222Z,82.00
2017-09-10T02:49:41.339Z,81.70
2017-09-10T02:52:13.695Z,81.50
2017-09-10T02:54:44.815Z,81.50
2017-09-10T02:57:16.414Z,81.00
2017-09-10T02:59:48.243Z,80.60
2017-09-10T03:02:19.340Z,80.60
2017-09-10T03:07:43.913Z,79.30
2017-09-10T03:10:15.758Z,78.40
2017-09-10T03:12:46.866Z,78.20
2017-09-10T03:15:18.033Z,78.00
2017-09-10T03:17:49.186Z,77.20
2017-09-10T03:20:20.399Z,77.20
2017-09-10T03:22:51.939Z,77.60
2017-09-10T03:25:23.199Z,77.90
2017-09-10T03:27:54.742Z,78.50
2017-09-10T03:30:25.972Z,78.90
2017-09-10T03:32:57.234Z,79.20
2017-09-10T03:35:28.703Z,79.10
2017-09-10T03:37:59.843Z,79.20
2017-09-10T03:40:31.276Z,79.30
2017-09-10T03:43:02.409Z,79.20
2017-09-10T03:45:33.750Z,79.20
2017-09-10T03:48:04.829Z,78.70
2017-09-10T03:50:35.993Z,78.50
2017-09-10T03:53:09.024Z,78.00
2017-09-10T03:55:40.258Z,77.70
2017-09-10T03:58:11.731Z,76.70
2017-09-10T04:00:42.886Z,76.70
2017-09-10T04:03:14.146Z,76.60
2017-09-10T04:05:45.355Z,76.10
2017-09-10T04:08:16.691Z,75.50
2017-09-10T04:10:48.329Z,75.60
2017-09-10T04:13:20.289Z,75.80
2017-09-10T04:15:51.546Z,75.70
2017-09-10T04:18:22.806Z,76.30
2017-09-10T04:20:53.986Z,76.40
2017-09-10T04:23:25.333Z,76.20
2017-09-10T04:25:56.526Z,76.10
2017-09-10T04:28:28.911Z,75.30
2017-09-10T04:31:00.113Z,75.20
2017-09-10T04:33:31.401Z,75.10
2017-09-10T04:36:02.581Z,74.70
2017-09-10T04:38:33.793Z,75.20
2017-09-10T04:41:06.112Z,75.10
2017-09-10T04:43:37.242Z,74.90
2017-09-10T04:46:08.403Z,74.70
2017-09-10T04:48:39.543Z,74.20
2017-09-10T04:51:10.661Z,73.80
2017-09-10T04:53:42.105Z,72.90
2017-09-10T04:56:13.301Z,73.30
2017-09-10T04:58:44.639Z,74.40
2017-09-10T05:01:15.891Z,74.70
2017-09-10T05:03:47.147Z,75.00
2017-09-10T05:06:18.340Z,75.30
2017-09-10T05:08:49.591Z,75.30
2017-09-10T05:11:21.160Z,75.20
2017-09-10T05:13:52.328Z,75.10
2017-09-10T05:16:23.469Z,76.10
2017-09-10T05:18:54.574Z,74.60
2017-09-10T05:21:26.672Z,72.20
2017-09-10T05:23:58.256Z,72.60
2017-09-10T05:26:29.342Z,72.10
2017-09-10T05:29:00.901Z,71.30
2017-09-10T05:31:31.932Z,70.80
2017-09-10T05:34:03.133Z,70.70
2017-09-10T05:36:34.289Z,71.20
2017-09-10T05:39:05.510Z,71.60
2017-09-10T05:41:37.974Z,72.60
2017-09-10T05:44:09.424Z,72.60
2017-09-10T05:46:41.237Z,72.20
2017-09-10T05:49:13.080Z,72.50
2017-09-10T05:51:44.904Z,72.80
2017-09-10T05:54:17.068Z,72.60
2017-09-10T05:56:48.897Z,72.40
2017-09-10T05:59:21.094Z,72.40
2017-09-10T06:01:52.898Z,71.40
2017-09-10T06:04:24.687Z,71.70
2017-09-10T06:06:56.552Z,72.80
2017-09-10T06:09:28.441Z,73.20
2017-09-10T06:12:00.472Z,73.80
2017-09-10T06:14:32.417Z,74.10
2017-09-10T06:17:04.151Z,74.60
2017-09-10T06:19:36.029Z,74.20
2017-09-10T06:22:07.924Z,74.40
2017-09-10T06:24:40.032Z,74.80
2017-09-10T06:27:13.546Z,75.90
2017-09-10T06:29:45.457Z,75.90
2017-09-10T06:32:17.311Z,76.50
2017-09-10T06:34:49.225Z,76.70
2017-09-10T06:37:21.184Z,77.50
2017-09-10T06:39:53.070Z,78.20
2017-09-10T06:42:25.087Z,78.90
2017-09-10T06:44:57.023Z,79.90
2017-09-10T06:47:28.940Z,80.00
2017-09-10T06:50:02.090Z,80.30
2017-09-10T06:52:33.956Z,81.10
2017-09-10T06:55:06.265Z,81.90
2017-09-10T06:57:38.268Z,82.50
2017-09-10T07:00:11.700Z,82.90
2017-09-10T07:02:44.300Z,83.70
2017-09-10T07:05:16.189Z,83.50
2017-09-10T07:07:48.518Z,83.60
2017-09-10T07:10:20.184Z,83.50
2017-09-10T07:12:54.824Z,83.40
2017-09-10T07:15:26.792Z,83.50
2017-09-10T07:17:58.627Z,83.60
2017-09-10T07:20:30.837Z,83.50
2017-09-10T07:23:03.086Z,83.70
2017-09-10T07:25:36.937Z,83.80
2017-09-10T07:28:08.998Z,84.00
2017-09-10T07:30:41.810Z,84.50
2017-09-10T07:33:14.599Z,85.70
2017-09-10T07:35:47.779Z,85.70
2017-09-10T07:38:21.977Z,86.80
2017-09-10T07:40:55.123Z,86.80
2017-09-10T07:43:27.356Z,87.20
2017-09-10T07:46:02.422Z,88.10
2017-09-10T07:48:35.019Z,88.60
2017-09-10T07:51:07.211Z,89.10
2017-09-10T07:53:39.265Z,89.50
2017-09-10T07:56:11.543Z,90.00
2017-09-10T07:58:43.579Z,90.30
2017-09-10T08:01:15.752Z,90.60
2017-09-10T08:03:48.032Z,90.70
2017-09-10T08:06:19.959Z,90.90
2017-09-10T08:08:52.208Z,91.00
2017-09-10T08:11:24.230Z,91.10
2017-09-10T08:13:56.123Z,91.20
2017-09-10T08:16:28.435Z,91.30
2017-09-10T08:19:00.489Z,91.50
2017-09-10T08:21:32.476Z,91.90
2017-09-10T08:24:04.333Z,91.90
2017-09-10T08:26:36.234Z,91.90
2017-09-10T08:29:08.110Z,91.90
2017-09-10T08:31:40.003Z,91.60
2017-09-10T08:34:12.361Z,91.70
2017-09-10T08:36:44.900Z,91.80
2017-09-10T08:39:17.127Z,91.80
2017-09-10T08:41:48.876Z,91.80
2017-09-10T08:44:20.702Z,91.60
2017-09-10T08:46:52.579Z,91.30
2017-09-10T08:49:24.315Z,91.10
2017-09-10T08:51:56.973Z,91.50
2017-09-10T08:54:28.799Z,91.50
2017-09-10T08:57:00.474Z,91.70
2017-09-10T08:59:32.488Z,91.90
2017-09-10T09:02:04.363Z,91.90
2017-09-10T09:04:36.181Z,92.20
2017-09-10T09:07:08.196Z,92.40
2017-09-10T09:09:40.448Z,92.50
2017-09-10T09:12:12.408Z,92.80
2017-09-10T09:14:44.337Z,93.00
2017-09-10T09:17:16.146Z,93.40
2017-09-10T09:19:47.998Z,93.80
2017-09-10T09:22:20.370Z,94.00
2017-09-10T09:24:52.302Z,94.10
2017-09-10T09:27:24.138Z,93.70
2017-09-10T09:29:55.976Z,93.50
2017-09-10T09:32:27.832Z,93.50
2017-09-10T09:35:00.216Z,93.30
2017-09-10T09:37:32.277Z,93.50
2017-09-10T09:40:04.147Z,93.60
2017-09-10T09:42:37.069Z,93.90
2017-09-10T09:45:09.737Z,94.10
2017-09-10T09:47:44.421Z,94.30
2017-09-10T09:50:16.720Z,94.30
2017-09-10T09:52:50.426Z,94.30
2017-09-10T09:55:23.234Z,94.30
2017-09-10T09:57:55.184Z,94.30
2017-09-10T10:00:27.986Z,94.30
2017-09-10T10:02:59.957Z,94.30
2017-09-10T10:05:32.287Z,94.30
2017-09-10T10:08:04.211Z,94.30
2017-09-10T10:10:36.145Z,94.30
2017-09-10T10:13:08.132Z,94.10
2017-09-10T10:15:39.960Z,94.10
2017-09-10T10:18:12.606Z,94.30
2017-09-10T10:20:45.566Z,94.40
2017-09-10T10:23:17.717Z,94.40
2017-09-10T10:25:49.569Z,94.40
2017-09-10T10:28:21.698Z,94.20
2017-09-10T10:30:53.606Z,94.30
2017-09-10T10:33:25.552Z,94.10
2017-09-10T10:35:57.836Z,94.30
2017-09-10T10:38:29.788Z,94.20
2017-09-10T10:41:01.627Z,94.20
2017-09-10T10:43:33.733Z,94.40
2017-09-10T10:46:05.621Z,94.30
2017-09-10T10:48:37.929Z,94.10
2017-09-10T10:51:09.838Z,93.50
2017-09-10T10:53:41.729Z,93.40
2017-09-10T10:56:13.648Z,93.20
2017-09-10T10:58:46.781Z,93.30
2017-09-10T11:01:21.240Z,93.20
2017-09-10T11:03:53.051Z,93.20
2017-09-10T11:06:25.289Z,93.30
2017-09-10T11:08:58.544Z,93.40
2017-09-10T11:11:30.370Z,93.70
2017-09-10T11:14:02.197Z,93.60
2017-09-10T11:16:33.997Z,93.80
2017-09-10T11:19:07.183Z,93.50
2017-09-10T11:21:39.124Z,93.50
2017-09-10T11:24:12.250Z,93.10
2017-09-10T11:26:44.068Z,93.20
2017-09-10T11:29:15.971Z,93.20
2017-09-10T11:31:50.576Z,93.00
2017-09-10T11:34:23.320Z,93.00
2017-09-10T11:36:55.455Z,92.90
2017-09-10T11:39:27.417Z,93.00
2017-09-10T11:41:59.287Z,92.80
2017-09-10T11:44:31.251Z,92.30
2017-09-10T11:47:03.010Z,92.30
2017-09-10T11:49:35.294Z,92.50
2017-09-10T11:52:07.183Z,92.60
2017-09-10T11:54:40.601Z,92.40
2017-09-10T11:57:12.438Z,92.60
2017-09-10T11:59:44.294Z,92.60
2017-09-10T12:02:16.593Z,92.90
2017-09-10T12:04:48.511Z,93.10
2017-09-10T12:07:20.334Z,93.20
2017-09-10T12:09:52.139Z,93.30
2017-09-10T12:12:24.069Z,93.60
2017-09-10T12:14:59.151Z,93.80
2017-09-10T12:17:30.870Z,93.70
2017-09-10T12:20:02.866Z,93.80
2017-09-10T12:22:34.817Z,93.80
2017-09-10T12:25:06.689Z,93.70
2017-09-10T12:27:38.417Z,93.60
2017-09-10T12:30:10.501Z,93.40
2017-09-10T12:32:43.748Z,93.60
2017-09-10T12:35:15.584Z,93.70
2017-09-10T12:37:47.442Z,93.60
2017-09-10T12:40:19.271Z,93.30
2017-09-10T12:42:51.241Z,93.80
2017-09-10T12:45:23.715Z,93.10
2017-09-10T12:47:55.774Z,93.40
2017-09-10T12:50:28.175Z,93.50
2017-09-10T12:53:00.760Z,93.70
2017-09-10T12:55:33.685Z,93.70
2017-09-10T12:58:05.722Z,93.70
2017-09-10T13:00:37.743Z,93.70
2017-09-10T13:03:11.057Z,93.80
2017-09-10T13:05:43.083Z,93.80
2017-09-10T13:08:15.051Z,93.80
2017-09-10T13:10:47.089Z,93.30
2017-09-10T13:13:19.042Z,93.70
2017-09-10T13:15:51.506Z,93.70
2017-09-10T13:18:23.366Z,93.70
2017-09-10T13:20:55.208Z,93.80
2017-09-10T13:23:26.828Z,93.70
2017-09-10T13:25:58.517Z,93.50
2017-09-10T13:28:30.899Z,93.80
2017-09-10T13:31:03.761Z,93.50
2017-09-10T13:33:38.667Z,93.30
2017-09-10T13:36:11.806Z,93.60
2017-09-10T13:38:44.433Z,93.80
2017-09-10T13:41:16.588Z,93.80
2017-09-10T13:43:49.010Z,93.20
2017-09-10T13:46:21.628Z,93.70
2017-09-10T13:48:53.703Z,93.80
2017-09-10T13:51:25.754Z,93.70
2017-09-10T13:53:59.390Z,94.00
2017-09-10T13:56:31.623Z,93.80
2017-09-10T13:59:04.068Z,94.00
2017-09-10T14:01:36.426Z,93.50
2017-09-10T14:04:08.668Z,93.40
2017-09-10T14:06:40.846Z,93.50
2017-09-10T14:09:13.130Z,93.10
2017-09-10T14:11:45.759Z,93.10
2017-09-10T14:14:17.682Z,93.00
2017-09-10T14:16:50.076Z,93.00
2017-09-10T14:19:22.234Z,93.20
2017-09-10T14:21:54.026Z,93.10
2017-09-10T14:24:26.042Z,93.10
2017-09-10T14:26:58.538Z,93.40
2017-09-10T14:29:30.798Z,93.40
2017-09-10T14:32:02.746Z,93.40
2017-09-10T14:34:34.980Z,93.10
2017-09-10T14:37:07.004Z,93.30
2017-09-10T14:39:39.000Z,93.50
2017-09-10T14:42:11.467Z,93.50
2017-09-10T14:44:43.325Z,93.90
2017-09-10T14:47:15.883Z,93.70
2017-09-10T14:49:47.731Z,93.70
2017-09-10T14:52:21.885Z,93.60
2017-09-10T14:54:54.225Z,93.40
2017-09-10T14:57:26.201Z,93.50
2017-09-10T14:59:59.940Z,93.20
2017-09-10T15:02:31.898Z,93.00
2017-09-10T15:05:05.402Z,93.20
2017-09-10T15:07:39.295Z,93.10
2017-09-10T15:10:11.140Z,93.10
2017-09-10T15:12:45.731Z,93.10
2017-09-10T15:15:18.737Z,93.20
2017-09-10T15:17:51.819Z,93.10
2017-09-10T15:20:25.417Z,93.20
2017-09-10T15:22:57.344Z,93.30
2017-09-10T15:25:29.358Z,93.50
2017-09-10T15:28:01.492Z,93.50
2017-09-10T15:30:36.904Z,93.60
2017-09-10T15:33:08.898Z,93.50
2017-09-10T15:35:41.587Z,93.60
2017-09-10T15:38:14.830Z,93.90
2017-09-10T15:40:48.447Z,93.60
2017-09-10T15:43:21.346Z,93.60
2017-09-10T15:45:53.163Z,93.50
2017-09-10T15:48:25.079Z,93.30
2017-09-10T15:50:56.825Z,93.10
2017-09-10T15:53:28.671Z,92.70
2017-09-10T15:56:02.823Z,92.90
2017-09-10T15:58:35.445Z,93.10
2017-09-10T16:01:07.662Z,93.10
2017-09-10T16:03:40.546Z,93.20
2017-09-10T16:06:12.418Z,93.30
2017-09-10T16:08:44.173Z,93.30
2017-09-10T16:11:17.513Z,93.40
2017-09-10T16:13:49.676Z,93.40
2017-09-10T16:16:24.248Z,93.50
2017-09-10T16:18:55.379Z,93.50
2017-09-10T16:21:26.371Z,93.40
2017-09-10T16:23:58.757Z,93.60
2017-09-10T16:26:33.857Z,93.60
2017-09-10T16:29:06.849Z,93.40
2017-09-10T16:31:38.107Z,93.10
2017-09-10T16:34:10.238Z,93.10
2017-09-10T16:36:41.290Z,93.10
2017-09-10T16:39:15.065Z,93.20
2017-09-10T16:41:47.087Z,93.20
2017-09-10T16:44:18.420Z,93.20
2017-09-10T16:46:51.837Z,93.20
2017-09-10T16:49:22.870Z,93.00
2017-09-10T16:51:53.965Z,93.20
2017-09-10T16:54:26.867Z,93.10
2017-09-10T16:59:36.282Z,93.10
2017-09-10T17:02:07.425Z,93.30
2017-09-10T17:04:38.577Z,93.10
2017-09-10T17:07:09.600Z,93.10
2017-09-10T17:09:41.008Z,92.80
2017-09-10T17:12:12.994Z,92.80
2017-09-10T17:14:44.000Z,92.90
2017-09-10T17:17:15.749Z,92.90
2017-09-10T17:19:49.759Z,92.90
2017-09-10T17:22:21.773Z,93.00
2017-09-10T17:24:52.797Z,93.00
2017-09-10T17:27:25.104Z,93.20
2017-09-10T17:29:56.197Z,93.20
2017-09-10T17:32:27.246Z,93.30
2017-09-10T17:34:59.728Z,93.30
2017-09-10T17:37:30.736Z,93.40
2017-09-10T17:40:02.946Z,93.30
2017-09-10T17:42:33.941Z,93.30
2017-09-10T17:45:05.005Z,93.30
2017-09-10T17:47:36.104Z,93.40
2017-09-10T17:50:07.113Z,93.30
2017-09-10T17:52:38.423Z,93.20
2017-09-10T17:57:44.747Z,92.70
2017-09-10T18:00:15.847Z,93.20
2017-09-10T18:02:46.952Z,93.20
2017-09-10T18:05:17.979Z,93.10
2017-09-10T18:07:49.054Z,93.20
2017-09-10T18:10:22.171Z,93.10
2017-09-10T18:12:53.201Z,93.00
2017-09-10T18:15:24.227Z,92.90
2017-09-10T18:17:55.995Z,92.50
2017-09-10T18:20:28.053Z,92.70
2017-09-10T18:23:00.436Z,92.50
2017-09-10T18:25:32.924Z,92.50
2017-09-10T18:28:06.088Z,92.50
2017-09-10T18:30:37.205Z,92.50
2017-09-10T18:33:08.274Z,92.30
2017-09-10T18:35:40.112Z,92.10
2017-09-10T18:38:12.805Z,92.10
2017-09-10T18:40:45.142Z,92.40
2017-09-10T18:43:17.587Z,92.30
2017-09-10T18:45:48.606Z,92.50
2017-09-10T18:48:21.307Z,92.80
2017-09-10T18:50:52.032Z,92.80
2017-09-10T18:53:22.739Z,92.90
2017-09-10T18:55:53.144Z,93.10
2017-09-10T18:58:24.149Z,93.20
2017-09-10T19:00:55.888Z,93.30
2017-09-10T19:03:26.284Z,93.20
2017-09-10T19:05:56.879Z,93.20
2017-09-10T19:08:27.478Z,93.10
2017-09-10T19:10:58.496Z,93.10
2017-09-10T19:13:29.174Z,93.10
2017-09-10T19:15:59.632Z,93.00
2017-09-10T19:18:30.215Z,92.90
2017-09-10T19:21:00.752Z,93.00
2017-09-10T19:23:31.921Z,93.00
2017-09-10T19:26:02.530Z,93.20
2017-09-10T19:28:34.556Z,93.10
2017-09-10T19:31:05.894Z,93.00
2017-09-10T19:33:36.265Z,93.00
2017-09-10T19:36:06.576Z,93.00
2017-09-10T19:38:36.971Z,93.00
2017-09-10T19:41:08.903Z,93.10
2017-09-10T19:43:39.245Z,93.10
2017-09-10T19:46:09.742Z,93.00
2017-09-10T19:48:40.330Z,92.90
2017-09-10T19:51:10.826Z,92.90
2017-09-10T19:53:41.113Z,93.00
2017-09-10T19:56:11.756Z,93.00
2017-09-10T19:58:42.730Z,93.00
2017-09-10T20:01:13.044Z,93.00
2017-09-10T20:03:43.425Z,93.20
2017-09-10T20:06:14.818Z,93.20
2017-09-10T20:08:45.120Z,93.30
2017-09-10T20:11:15.921Z,93.00
2017-09-10T20:13:46.206Z,92.90
2017-09-10T20:16:16.889Z,93.10
2017-09-10T20:18:47.158Z,92.90
2017-09-10T20:21:17.649Z,92.50
2017-09-10T20:23:48.194Z,92.40
2017-09-10T20:26:18.591Z,92.50
2017-09-10T20:28:49.223Z,92.70
2017-09-10T20:31:19.541Z,93.00
2017-09-10T20:33:49.841Z,93.20
2017-09-10T20:36:20.162Z,92.60
2017-09-10T20:38:51.222Z,92.90
2017-09-10T20:41:21.599Z,92.90
2017-09-10T20:43:51.903Z,93.00
2017-09-10T20:46:22.812Z,92.90
2017-09-10T20:48:53.131Z,92.90
2017-09-10T20:51:23.626Z,92.90
2017-09-10T20:53:54.719Z,93.00
2017-09-10T20:56:25.046Z,93.00
2017-09-10T20:58:56.047Z,92.90
2017-09-10T21:01:26.438Z,92.90
2017-09-10T21:03:57.434Z,93.10
2017-09-10T21:06:28.641Z,93.00
2017-09-10T21:08:58.982Z,93.10
2017-09-10T21:11:29.424Z,93.10
2017-09-10T21:13:59.824Z,93.20
2017-09-10T21:16:31.306Z,93.30
2017-09-10T21:19:01.688Z,93.30
2017-09-10T21:21:32.005Z,93.30
2017-09-10T21:24:02.304Z,93.40
2017-09-10T21:26:32.704Z,93.50
2017-09-10T21:29:03.837Z,93.40
2017-09-10T21:31:34.185Z,93.60
2017-09-10T21:34:06.022Z,93.70
2017-09-10T21:36:36.516Z,93.70
2017-09-10T21:39:06.963Z,93.50
2017-09-10T21:41:38.034Z,93.70
2017-09-10T21:44:08.426Z,93.60
2017-09-10T21:46:40.030Z,93.80
2017-09-10T21:49:10.642Z,93.80
2017-09-10T21:51:41.884Z,93.90
2017-09-10T21:54:12.297Z,93.90
2017-09-10T21:56:42.703Z,93.90
2017-09-10T21:59:13.081Z,93.90
2017-09-10T22:01:43.407Z,94.00
2017-09-10T22:04:14.223Z,94.20
2017-09-10T22:06:44.638Z,94.00
2017-09-10T22:09:15.046Z,94.00
2017-09-10T22:11:45.385Z,94.20
2017-09-10T22:14:15.749Z,94.20
2017-09-10T22:16:46.347Z,94.10
2017-09-10T22:19:16.692Z,94.10
2017-09-10T22:21:47.925Z,94.10
2017-09-10T22:24:18.284Z,94.00
2017-09-10T22:26:48.614Z,94.00
2017-09-10T22:29:19.904Z,94.00
2017-09-10T22:31:50.226Z,94.00
2017-09-10T22:34:21.834Z,94.10
2017-09-10T22:36:52.189Z,94.10
2017-09-10T22:39:23.368Z,94.10
2017-09-10T22:41:53.783Z,94.10
2017-09-10T22:44:24.167Z,94.20
2017-09-10T22:46:54.539Z,94.10
2017-09-10T22:49:25.348Z,94.10
2017-09-10T22:51:57.606Z,94.40
2017-09-10T22:54:29.019Z,94.40
2017-09-10T22:56:59.423Z,94.50
2017-09-10T22:59:29.798Z,94.50
2017-09-10T23:02:00.167Z,94.50
2017-09-10T23:04:31.818Z,94.60
2017-09-10T23:07:02.246Z,94.60
2017-09-10T23:09:33.784Z,94.60
2017-09-10T23:12:04.129Z,94.60
2017-09-10T23:14:34.512Z,94.60
2017-09-10T23:17:04.908Z,94.70
2017-09-10T23:19:35.278Z,94.80
2017-09-10T23:22:06.851Z,94.80
2017-09-10T23:24:37.160Z,94.70
2017-09-10T23:27:07.565Z,94.70
2017-09-10T23:29:37.895Z,94.80
2017-09-10T23:32:08.242Z,94.90
2017-09-10T23:34:39.524Z,94.90
2017-09-10T23:37:09.835Z,94.90
2017-09-10T23:39:40.765Z,95.00
2017-09-10T23:42:11.070Z,95.00
2017-09-10T23:44:41.407Z,95.00
2017-09-10T23:47:11.812Z,95.10
2017-09-10T23:49:42.125Z,95.10
2017-09-10T23:52:30.089Z,95.20
2017-09-10T23:55:00.543Z,95.20
2017-09-10T23:57:30.968Z,95.20
